sensor_id;sensor_type;location;lat;lon;timestamp;temperature;humidity
71084;DHT22;58741;52.672;13.548;2023-02-26T00:01:00;0.30;99.90
71084;DHT22;58741;52.672;13.548;2023-02-26T00:03:27;0.20;99.90
71084;DHT22;58741;52.672;13.548;2023-02-26T00:05:52;0.20;99.90
71084;DHT22;58741;52.672;13.548;2023-02-26T00:08:18;0.20;99.90
71084;DHT22;58741;52.672;13.548;2023-02-26T00:10:44;0.20;99.90
71084;DHT22;58741;52.672;13.548;2023-02-26T00:13:10;0.20;99.90
71084;DHT22;58741;52.672;13.548;2023-02-26T00:15:36;0.20;99.90
71084;DHT22;58741;52.672;13.548;2023-02-26T00:18:08;0.20;99.90
71084;DHT22;58741;52.672;13.548;2023-02-26T00:20:35;0.20;99.90
71084;DHT22;58741;52.672;13.548;2023-02-26T00:23:01;0.20;99.90
71084;DHT22;58741;52.672;13.548;2023-02-26T00:25:27;0.30;99.90
71084;DHT22;58741;52.672;13.548;2023-02-26T00:27:53;0.20;99.90
71084;DHT22;58741;52.672;13.548;2023-02-26T00:30:19;0.20;99.90
71084;DHT22;58741;52.672;13.548;2023-02-26T00:32:45;0.20;99.90
71084;DHT22;58741;52.672;13.548;2023-02-26T00:35:13;0.20;99.90
71084;DHT22;58741;52.672;13.548;2023-02-26T00:37:53;0.20;99.90
71084;DHT22;58741;52.672;13.548;2023-02-26T00:40:43;0.20;99.90
71084;DHT22;58741;52.672;13.548;2023-02-26T00:43:20;0.20;99.90
71084;DHT22;58741;52.672;13.548;2023-02-26T00:46:03;0.20;99.90
71084;DHT22;58741;52.672;13.548;2023-02-26T00:51:31;0.20;99.90
71084;DHT22;58741;52.672;13.548;2023-02-26T00:54:23;0.20;99.90
71084;DHT22;58741;52.672;13.548;2023-02-26T00:56:51;0.20;99.90
71084;DHT22;58741;52.672;13.548;2023-02-26T00:59:17;0.20;99.90
71084;DHT22;58741;52.672;13.548;2023-02-26T01:01:43;0.20;99.90
71084;DHT22;58741;52.672;13.548;2023-02-26T01:04:09;0.20;99.90
71084;DHT22;58741;52.672;13.548;2023-02-26T01:06:42;0.20;99.90
71084;DHT22;58741;52.672;13.548;2023-02-26T01:09:27;0.20;99.90
71084;DHT22;58741;52.672;13.548;2023-02-26T01:11:54;0.20;99.90
71084;DHT22;58741;52.672;13.548;2023-02-26T01:14:20;0.20;99.90
71084;DHT22;58741;52.672;13.548;2023-02-26T01:22:21;0.20;99.90
71084;DHT22;58741;52.672;13.548;2023-02-26T01:24:48;0.20;99.90
71084;DHT22;58741;52.672;13.548;2023-02-26T01:27:16;0.20;99.90
71084;DHT22;58741;52.672;13.548;2023-02-26T01:29:42;0.20;99.90
71084;DHT22;58741;52.672;13.548;2023-02-26T01:32:37;0.20;99.90
71084;DHT22;58741;52.672;13.548;2023-02-26T01:38:30;0.20;99.90
71084;DHT22;58741;52.672;13.548;2023-02-26T01:41:08;0.20;99.90
71084;DHT22;58741;52.672;13.548;2023-02-26T01:46:31;0.30;99.90
71084;DHT22;58741;52.672;13.548;2023-02-26T01:48:59;0.30;99.90
71084;DHT22;58741;52.672;13.548;2023-02-26T01:51:58;0.30;99.90
71084;DHT22;58741;52.672;13.548;2023-02-26T01:54:32;0.30;99.90
71084;DHT22;58741;52.672;13.548;2023-02-26T01:57:03;0.30;99.90
71084;DHT22;58741;52.672;13.548;2023-02-26T01:59:31;0.30;99.90
71084;DHT22;58741;52.672;13.548;2023-02-26T02:01:58;0.20;99.90
71084;DHT22;58741;52.672;13.548;2023-02-26T02:04:26;0.20;99.90
71084;DHT22;58741;52.672;13.548;2023-02-26T02:06:53;0.20;99.90
71084;DHT22;58741;52.672;13.548;2023-02-26T02:09:19;0.30;99.90
71084;DHT22;58741;52.672;13.548;2023-02-26T02:12:06;0.20;99.90
71084;DHT22;58741;52.672;13.548;2023-02-26T02:25:12;0.20;99.90
71084;DHT22;58741;52.672;13.548;2023-02-26T02:28:07;0.20;99.90
71084;DHT22;58741;52.672;13.548;2023-02-26T02:33:56;0.20;99.90
71084;DHT22;58741;52.672;13.548;2023-02-26T02:36:35;0.20;99.90
71084;DHT22;58741;52.672;13.548;2023-02-26T02:39:24;0.20;99.90
71084;DHT22;58741;52.672;13.548;2023-02-26T02:42:21;0.20;99.90
71084;DHT22;58741;52.672;13.548;2023-02-26T02:44:52;0.20;99.90
71084;DHT22;58741;52.672;13.548;2023-02-26T02:47:21;0.20;99.90
71084;DHT22;58741;52.672;13.548;2023-02-26T02:49:55;0.20;99.90
71084;DHT22;58741;52.672;13.548;2023-02-26T02:52:31;0.20;99.90
71084;DHT22;58741;52.672;13.548;2023-02-26T02:55:02;0.20;99.90
71084;DHT22;58741;52.672;13.548;2023-02-26T02:57:34;0.20;99.90
71084;DHT22;58741;52.672;13.548;2023-02-26T03:00:06;0.20;99.90
71084;DHT22;58741;52.672;13.548;2023-02-26T03:05:08;0.20;99.90
71084;DHT22;58741;52.672;13.548;2023-02-26T03:07:40;0.20;99.90
71084;DHT22;58741;52.672;13.548;2023-02-26T03:10:08;0.20;99.90
71084;DHT22;58741;52.672;13.548;2023-02-26T03:12:34;0.20;99.90
71084;DHT22;58741;52.672;13.548;2023-02-26T03:15:01;0.20;99.90
71084;DHT22;58741;52.672;13.548;2023-02-26T03:17:42;0.20;99.90
71084;DHT22;58741;52.672;13.548;2023-02-26T03:20:24;0.20;99.90
71084;DHT22;58741;52.672;13.548;2023-02-26T03:23:00;0.20;99.90
71084;DHT22;58741;52.672;13.548;2023-02-26T03:25:37;0.20;99.90
71084;DHT22;58741;52.672;13.548;2023-02-26T03:31:16;0.20;99.90
71084;DHT22;58741;52.672;13.548;2023-02-26T03:36:47;0.20;99.90
71084;DHT22;58741;52.672;13.548;2023-02-26T03:39:38;0.20;99.90
71084;DHT22;58741;52.672;13.548;2023-02-26T03:42:29;0.20;99.90
71084;DHT22;58741;52.672;13.548;2023-02-26T03:45:15;0.20;99.90
71084;DHT22;58741;52.672;13.548;2023-02-26T03:47:46;0.20;99.90
71084;DHT22;58741;52.672;13.548;2023-02-26T03:50:21;0.20;99.90
71084;DHT22;58741;52.672;13.548;2023-02-26T03:53:09;0.20;99.90
71084;DHT22;58741;52.672;13.548;2023-02-26T03:56:11;0.20;99.90
71084;DHT22;58741;52.672;13.548;2023-02-26T03:58:58;0.20;99.90
71084;DHT22;58741;52.672;13.548;2023-02-26T04:01:53;0.20;99.90
71084;DHT22;58741;52.672;13.548;2023-02-26T04:04:54;0.20;99.90
71084;DHT22;58741;52.672;13.548;2023-02-26T04:07:20;0.20;99.90
71084;DHT22;58741;52.672;13.548;2023-02-26T04:09:48;0.20;99.90
71084;DHT22;58741;52.672;13.548;2023-02-26T04:12:15;0.20;99.90
71084;DHT22;58741;52.672;13.548;2023-02-26T04:14:46;0.20;99.90
71084;DHT22;58741;52.672;13.548;2023-02-26T04:17:11;0.20;99.90
71084;DHT22;58741;52.672;13.548;2023-02-26T04:19:37;0.20;99.90
71084;DHT22;58741;52.672;13.548;2023-02-26T04:22:03;0.20;99.90
71084;DHT22;58741;52.672;13.548;2023-02-26T04:24:29;0.20;99.90
71084;DHT22;58741;52.672;13.548;2023-02-26T04:26:58;0.20;99.90
71084;DHT22;58741;52.672;13.548;2023-02-26T04:29:23;0.20;99.90
71084;DHT22;58741;52.672;13.548;2023-02-26T04:31:49;0.20;99.90
71084;DHT22;58741;52.672;13.548;2023-02-26T04:34:15;0.20;99.90
71084;DHT22;58741;52.672;13.548;2023-02-26T04:36:41;0.20;99.90
71084;DHT22;58741;52.672;13.548;2023-02-26T04:39:07;0.30;99.90
71084;DHT22;58741;52.672;13.548;2023-02-26T04:41:35;0.30;99.90
71084;DHT22;58741;52.672;13.548;2023-02-26T04:44:01;0.20;99.90
71084;DHT22;58741;52.672;13.548;2023-02-26T04:46:30;0.30;99.90
71084;DHT22;58741;52.672;13.548;2023-02-26T04:48:56;0.20;99.90
71084;DHT22;58741;52.672;13.548;2023-02-26T04:51:22;0.20;99.90
71084;DHT22;58741;52.672;13.548;2023-02-26T04:53:49;0.20;99.90
71084;DHT22;58741;52.672;13.548;2023-02-26T04:56:15;0.20;99.90
71084;DHT22;58741;52.672;13.548;2023-02-26T04:58:41;0.30;99.90
71084;DHT22;58741;52.672;13.548;2023-02-26T05:01:12;0.20;99.90
71084;DHT22;58741;52.672;13.548;2023-02-26T05:03:38;0.30;99.90
71084;DHT22;58741;52.672;13.548;2023-02-26T05:06:04;0.20;99.90
71084;DHT22;58741;52.672;13.548;2023-02-26T05:08:30;0.20;99.90
71084;DHT22;58741;52.672;13.548;2023-02-26T05:10:56;0.20;99.90
71084;DHT22;58741;52.672;13.548;2023-02-26T05:13:21;0.20;99.90
71084;DHT22;58741;52.672;13.548;2023-02-26T05:15:47;0.30;99.90
71084;DHT22;58741;52.672;13.548;2023-02-26T05:18:12;0.20;99.90
71084;DHT22;58741;52.672;13.548;2023-02-26T05:20:38;0.30;99.90
71084;DHT22;58741;52.672;13.548;2023-02-26T05:23:04;0.20;99.90
71084;DHT22;58741;52.672;13.548;2023-02-26T05:25:29;0.20;99.90
71084;DHT22;58741;52.672;13.548;2023-02-26T05:27:55;0.20;99.90
71084;DHT22;58741;52.672;13.548;2023-02-26T05:30:22;0.20;99.90
71084;DHT22;58741;52.672;13.548;2023-02-26T05:32:47;0.20;99.90
71084;DHT22;58741;52.672;13.548;2023-02-26T05:35:13;0.20;99.90
71084;DHT22;58741;52.672;13.548;2023-02-26T05:37:38;0.20;99.90
71084;DHT22;58741;52.672;13.548;2023-02-26T05:40:06;0.20;99.90
71084;DHT22;58741;52.672;13.548;2023-02-26T05:42:36;0.20;99.90
71084;DHT22;58741;52.672;13.548;2023-02-26T05:45:03;0.20;99.90
71084;DHT22;58741;52.672;13.548;2023-02-26T05:47:31;0.20;99.90
71084;DHT22;58741;52.672;13.548;2023-02-26T05:49:57;0.20;99.90
71084;DHT22;58741;52.672;13.548;2023-02-26T05:52:22;0.20;99.90
71084;DHT22;58741;52.672;13.548;2023-02-26T05:54:48;0.20;99.90
71084;DHT22;58741;52.672;13.548;2023-02-26T05:57:14;0.20;99.90
71084;DHT22;58741;52.672;13.548;2023-02-26T05:59:40;0.20;99.90
71084;DHT22;58741;52.672;13.548;2023-02-26T06:02:05;0.20;99.90
71084;DHT22;58741;52.672;13.548;2023-02-26T06:04:31;0.20;99.90
71084;DHT22;58741;52.672;13.548;2023-02-26T06:06:56;0.20;99.90
71084;DHT22;58741;52.672;13.548;2023-02-26T06:09:22;0.20;99.90
71084;DHT22;58741;52.672;13.548;2023-02-26T06:11:47;0.20;99.90
71084;DHT22;58741;52.672;13.548;2023-02-26T06:14:13;0.20;99.90
71084;DHT22;58741;52.672;13.548;2023-02-26T06:16:38;0.20;99.90
71084;DHT22;58741;52.672;13.548;2023-02-26T06:19:04;0.20;99.90
71084;DHT22;58741;52.672;13.548;2023-02-26T06:21:30;0.20;99.90
71084;DHT22;58741;52.672;13.548;2023-02-26T06:23:56;0.20;99.90
71084;DHT22;58741;52.672;13.548;2023-02-26T06:26:21;0.20;99.90
71084;DHT22;58741;52.672;13.548;2023-02-26T06:28:47;0.20;99.90
71084;DHT22;58741;52.672;13.548;2023-02-26T06:31:12;0.20;99.90
71084;DHT22;58741;52.672;13.548;2023-02-26T06:33:38;0.20;99.90
71084;DHT22;58741;52.672;13.548;2023-02-26T06:36:04;0.20;99.90
71084;DHT22;58741;52.672;13.548;2023-02-26T06:38:29;0.20;99.90
71084;DHT22;58741;52.672;13.548;2023-02-26T06:40:55;0.20;99.90
71084;DHT22;58741;52.672;13.548;2023-02-26T06:43:21;0.20;99.90
71084;DHT22;58741;52.672;13.548;2023-02-26T06:45:47;0.20;99.90
71084;DHT22;58741;52.672;13.548;2023-02-26T06:48:12;0.20;99.90
71084;DHT22;58741;52.672;13.548;2023-02-26T06:50:38;0.20;99.90
71084;DHT22;58741;52.672;13.548;2023-02-26T06:53:04;0.30;99.90
71084;DHT22;58741;52.672;13.548;2023-02-26T06:55:30;0.30;99.90
71084;DHT22;58741;52.672;13.548;2023-02-26T06:57:56;0.30;99.90
71084;DHT22;58741;52.672;13.548;2023-02-26T07:00:23;0.30;99.90
71084;DHT22;58741;52.672;13.548;2023-02-26T07:02:49;0.30;99.90
71084;DHT22;58741;52.672;13.548;2023-02-26T07:05:15;0.30;99.90
71084;DHT22;58741;52.672;13.548;2023-02-26T07:07:41;0.30;99.90
71084;DHT22;58741;52.672;13.548;2023-02-26T07:10:08;0.30;99.90
71084;DHT22;58741;52.672;13.548;2023-02-26T07:12:34;0.30;99.90
71084;DHT22;58741;52.672;13.548;2023-02-26T07:15:00;0.30;99.90
71084;DHT22;58741;52.672;13.548;2023-02-26T07:17:25;0.30;99.90
71084;DHT22;58741;52.672;13.548;2023-02-26T07:19:51;0.30;99.90
71084;DHT22;58741;52.672;13.548;2023-02-26T07:22:18;0.30;99.90
71084;DHT22;58741;52.672;13.548;2023-02-26T07:24:45;0.40;99.90
71084;DHT22;58741;52.672;13.548;2023-02-26T07:27:11;0.50;99.90
71084;DHT22;58741;52.672;13.548;2023-02-26T07:29:37;0.50;99.90
71084;DHT22;58741;52.672;13.548;2023-02-26T07:32:03;0.60;99.90
71084;DHT22;58741;52.672;13.548;2023-02-26T07:34:29;0.60;99.90
71084;DHT22;58741;52.672;13.548;2023-02-26T07:36:54;0.60;99.90
71084;DHT22;58741;52.672;13.548;2023-02-26T07:39:20;0.80;99.90
71084;DHT22;58741;52.672;13.548;2023-02-26T07:41:46;0.80;99.90
71084;DHT22;58741;52.672;13.548;2023-02-26T07:44:14;0.90;99.90
71084;DHT22;58741;52.672;13.548;2023-02-26T07:46:39;1.10;99.90
71084;DHT22;58741;52.672;13.548;2023-02-26T07:49:05;1.20;99.90
71084;DHT22;58741;52.672;13.548;2023-02-26T07:51:30;1.30;99.90
71084;DHT22;58741;52.672;13.548;2023-02-26T07:53:56;1.40;99.90
71084;DHT22;58741;52.672;13.548;2023-02-26T07:56:21;1.50;99.90
71084;DHT22;58741;52.672;13.548;2023-02-26T07:58:47;1.60;99.90
71084;DHT22;58741;52.672;13.548;2023-02-26T08:01:13;1.70;99.90
71084;DHT22;58741;52.672;13.548;2023-02-26T08:03:38;1.80;99.90
71084;DHT22;58741;52.672;13.548;2023-02-26T08:06:04;1.90;99.90
71084;DHT22;58741;52.672;13.548;2023-02-26T08:08:30;2.00;99.90
71084;DHT22;58741;52.672;13.548;2023-02-26T08:10:59;2.10;99.90
71084;DHT22;58741;52.672;13.548;2023-02-26T08:13:24;2.20;99.70
71084;DHT22;58741;52.672;13.548;2023-02-26T08:15:50;2.30;99.80
71084;DHT22;58741;52.672;13.548;2023-02-26T08:18:15;2.40;98.90
71084;DHT22;58741;52.672;13.548;2023-02-26T08:20:41;2.50;98.70
71084;DHT22;58741;52.672;13.548;2023-02-26T08:23:07;2.60;98.80
71084;DHT22;58741;52.672;13.548;2023-02-26T08:25:32;2.70;98.70
71084;DHT22;58741;52.672;13.548;2023-02-26T08:27:58;2.90;97.90
71084;DHT22;58741;52.672;13.548;2023-02-26T08:30:25;3.00;98.00
71084;DHT22;58741;52.672;13.548;2023-02-26T08:32:51;3.10;97.20
71084;DHT22;58741;52.672;13.548;2023-02-26T08:35:16;3.20;97.00
71084;DHT22;58741;52.672;13.548;2023-02-26T08:37:42;3.30;97.10
71084;DHT22;58741;52.672;13.548;2023-02-26T08:40:10;3.50;95.70
71084;DHT22;58741;52.672;13.548;2023-02-26T08:42:36;3.60;96.10
71084;DHT22;58741;52.672;13.548;2023-02-26T08:45:02;3.70;96.20
71084;DHT22;58741;52.672;13.548;2023-02-26T08:47:27;3.90;95.20
71084;DHT22;58741;52.672;13.548;2023-02-26T08:49:53;3.90;94.80
71084;DHT22;58741;52.672;13.548;2023-02-26T08:52:19;4.00;94.70
71084;DHT22;58741;52.672;13.548;2023-02-26T08:54:45;4.20;93.60
71084;DHT22;58741;52.672;13.548;2023-02-26T08:57:11;4.30;94.40
71084;DHT22;58741;52.672;13.548;2023-02-26T08:59:37;4.50;95.60
71084;DHT22;58741;52.672;13.548;2023-02-26T09:02:02;4.60;94.60
71084;DHT22;58741;52.672;13.548;2023-02-26T09:04:28;4.70;93.40
71084;DHT22;58741;52.672;13.548;2023-02-26T09:06:54;4.80;92.40
71084;DHT22;58741;52.672;13.548;2023-02-26T09:09:19;4.80;92.50
71084;DHT22;58741;52.672;13.548;2023-02-26T09:11:45;4.90;92.30
71084;DHT22;58741;52.672;13.548;2023-02-26T09:14:11;4.90;92.40
71084;DHT22;58741;52.672;13.548;2023-02-26T09:16:36;4.90;92.30
71084;DHT22;58741;52.672;13.548;2023-02-26T09:19:04;4.90;92.40
71084;DHT22;58741;52.672;13.548;2023-02-26T09:21:30;4.90;91.00
71084;DHT22;58741;52.672;13.548;2023-02-26T09:23:56;4.80;91.80
71084;DHT22;58741;52.672;13.548;2023-02-26T09:26:22;4.80;91.80
71084;DHT22;58741;52.672;13.548;2023-02-26T09:28:47;4.60;91.10
71084;DHT22;58741;52.672;13.548;2023-02-26T09:31:13;4.60;91.70
71084;DHT22;58741;52.672;13.548;2023-02-26T09:33:39;4.70;91.40
71084;DHT22;58741;52.672;13.548;2023-02-26T09:36:05;4.80;92.60
71084;DHT22;58741;52.672;13.548;2023-02-26T09:38:30;5.00;92.80
71084;DHT22;58741;52.672;13.548;2023-02-26T09:41:04;5.20;92.30
71084;DHT22;58741;52.672;13.548;2023-02-26T09:44:12;5.30;92.00
71084;DHT22;58741;52.672;13.548;2023-02-26T09:46:57;5.60;91.10
71084;DHT22;58741;52.672;13.548;2023-02-26T09:49:58;5.70;89.70
71084;DHT22;58741;52.672;13.548;2023-02-26T09:52:40;5.80;90.90
71084;DHT22;58741;52.672;13.548;2023-02-26T09:55:14;5.90;87.70
71084;DHT22;58741;52.672;13.548;2023-02-26T09:57:44;6.00;88.00
71084;DHT22;58741;52.672;13.548;2023-02-26T10:01:02;6.10;86.70
71084;DHT22;58741;52.672;13.548;2023-02-26T10:03:18;6.10;86.00
71084;DHT22;58741;52.672;13.548;2023-02-26T10:05:56;6.10;83.90
71084;DHT22;58741;52.672;13.548;2023-02-26T10:08:32;6.20;87.50
71084;DHT22;58741;52.672;13.548;2023-02-26T10:11:13;6.40;87.30
71084;DHT22;58741;52.672;13.548;2023-02-26T10:13:55;6.50;87.70
71084;DHT22;58741;52.672;13.548;2023-02-26T10:16:27;6.60;84.80
71084;DHT22;58741;52.672;13.548;2023-02-26T10:19:03;6.60;84.00
71084;DHT22;58741;52.672;13.548;2023-02-26T10:21:34;6.70;85.40
71084;DHT22;58741;52.672;13.548;2023-02-26T10:24:06;6.70;81.20
71084;DHT22;58741;52.672;13.548;2023-02-26T10:26:53;6.70;81.90
71084;DHT22;58741;52.672;13.548;2023-02-26T10:32:29;6.90;85.70
71084;DHT22;58741;52.672;13.548;2023-02-26T10:34:59;7.00;85.00
71084;DHT22;58741;52.672;13.548;2023-02-26T10:37:35;7.10;82.60
71084;DHT22;58741;52.672;13.548;2023-02-26T10:40:15;7.10;83.60
71084;DHT22;58741;52.672;13.548;2023-02-26T10:43:13;7.10;83.50
71084;DHT22;58741;52.672;13.548;2023-02-26T10:51:39;7.20;83.40
71084;DHT22;58741;52.672;13.548;2023-02-26T10:54:22;7.40;83.30
71084;DHT22;58741;52.672;13.548;2023-02-26T10:56:49;7.50;82.20
71084;DHT22;58741;52.672;13.548;2023-02-26T10:59:15;7.60;81.90
71084;DHT22;58741;52.672;13.548;2023-02-26T11:01:40;7.70;82.70
71084;DHT22;58741;52.672;13.548;2023-02-26T11:04:12;7.80;82.00
71084;DHT22;58741;52.672;13.548;2023-02-26T11:06:47;8.00;83.70
71084;DHT22;58741;52.672;13.548;2023-02-26T11:09:25;8.20;83.90
71084;DHT22;58741;52.672;13.548;2023-02-26T11:11:54;8.20;79.40
71084;DHT22;58741;52.672;13.548;2023-02-26T11:14:21;8.20;78.00
71084;DHT22;58741;52.672;13.548;2023-02-26T11:16:51;8.10;76.40
71084;DHT22;58741;52.672;13.548;2023-02-26T11:19:23;8.00;78.30
71084;DHT22;58741;52.672;13.548;2023-02-26T11:21:49;7.90;77.30
71084;DHT22;58741;52.672;13.548;2023-02-26T11:24:34;7.60;74.30
71084;DHT22;58741;52.672;13.548;2023-02-26T11:27:03;7.50;76.10
71084;DHT22;58741;52.672;13.548;2023-02-26T11:29:39;7.40;77.90
71084;DHT22;58741;52.672;13.548;2023-02-26T11:32:06;7.20;76.00
71084;DHT22;58741;52.672;13.548;2023-02-26T11:34:38;7.10;77.80
71084;DHT22;58741;52.672;13.548;2023-02-26T11:37:09;7.00;77.40
71084;DHT22;58741;52.672;13.548;2023-02-26T11:39:37;6.90;78.50
71084;DHT22;58741;52.672;13.548;2023-02-26T11:42:03;6.90;80.00
71084;DHT22;58741;52.672;13.548;2023-02-26T11:44:41;7.10;80.90
71084;DHT22;58741;52.672;13.548;2023-02-26T11:47:16;7.20;78.40
71084;DHT22;58741;52.672;13.548;2023-02-26T11:49:49;7.20;74.90
71084;DHT22;58741;52.672;13.548;2023-02-26T11:52:38;7.20;76.80
71084;DHT22;58741;52.672;13.548;2023-02-26T11:55:20;7.20;78.70
71084;DHT22;58741;52.672;13.548;2023-02-26T11:57:51;7.40;77.20
71084;DHT22;58741;52.672;13.548;2023-02-26T12:00:38;7.50;78.50
71084;DHT22;58741;52.672;13.548;2023-02-26T12:03:06;7.50;74.90
71084;DHT22;58741;52.672;13.548;2023-02-26T12:05:35;7.50;75.50
71084;DHT22;58741;52.672;13.548;2023-02-26T12:08:03;7.40;74.10
71084;DHT22;58741;52.672;13.548;2023-02-26T12:13:29;7.20;76.90
71084;DHT22;58741;52.672;13.548;2023-02-26T12:16:17;7.10;76.30
71084;DHT22;58741;52.672;13.548;2023-02-26T12:24:32;6.80;75.00
71084;DHT22;58741;52.672;13.548;2023-02-26T12:35:23;7.60;78.10
71084;DHT22;58741;52.672;13.548;2023-02-26T12:40:40;7.80;74.10
71084;DHT22;58741;52.672;13.548;2023-02-26T12:43:29;7.60;71.40
71084;DHT22;58741;52.672;13.548;2023-02-26T12:59:33;7.10;77.30
71084;DHT22;58741;52.672;13.548;2023-02-26T13:07:45;7.20;71.50
71084;DHT22;58741;52.672;13.548;2023-02-26T13:15:56;6.80;70.90
71084;DHT22;58741;52.672;13.548;2023-02-26T13:21:33;6.70;75.20
71084;DHT22;58741;52.672;13.548;2023-02-26T13:24:13;6.90;77.30
71084;DHT22;58741;52.672;13.548;2023-02-26T13:26:41;7.10;78.00
71084;DHT22;58741;52.672;13.548;2023-02-26T13:29:15;7.40;77.60
71084;DHT22;58741;52.672;13.548;2023-02-26T13:31:47;7.80;73.70
71084;DHT22;58741;52.672;13.548;2023-02-26T13:34:28;8.00;73.60
71084;DHT22;58741;52.672;13.548;2023-02-26T13:36:55;8.30;69.80
71084;DHT22;58741;52.672;13.548;2023-02-26T13:42:59;8.20;69.50
71084;DHT22;58741;52.672;13.548;2023-02-26T13:45:44;8.00;67.50
71084;DHT22;58741;52.672;13.548;2023-02-26T13:51:26;7.60;68.70
71084;DHT22;58741;52.672;13.548;2023-02-26T13:53:58;7.50;69.50
71084;DHT22;58741;52.672;13.548;2023-02-26T14:01:31;7.10;70.00
71084;DHT22;58741;52.672;13.548;2023-02-26T14:04:24;7.00;70.50
71084;DHT22;58741;52.672;13.548;2023-02-26T14:07:10;6.90;68.30
71084;DHT22;58741;52.672;13.548;2023-02-26T14:12:37;6.70;68.70
71084;DHT22;58741;52.672;13.548;2023-02-26T14:23:17;6.20;69.20
71084;DHT22;58741;52.672;13.548;2023-02-26T14:25:48;6.10;69.70
71084;DHT22;58741;52.672;13.548;2023-02-26T14:31:16;5.90;70.40
71084;DHT22;58741;52.672;13.548;2023-02-26T14:33:46;5.90;71.50
71084;DHT22;58741;52.672;13.548;2023-02-26T14:36:30;5.80;71.80
71084;DHT22;58741;52.672;13.548;2023-02-26T14:38:58;5.80;71.90
71084;DHT22;58741;52.672;13.548;2023-02-26T14:41:29;5.80;71.90
71084;DHT22;58741;52.672;13.548;2023-02-26T14:44:03;5.80;72.50
71084;DHT22;58741;52.672;13.548;2023-02-26T14:46:33;5.70;72.40
71084;DHT22;58741;52.672;13.548;2023-02-26T14:49:00;5.60;71.80
71084;DHT22;58741;52.672;13.548;2023-02-26T14:59:42;5.30;72.60
71084;DHT22;58741;52.672;13.548;2023-02-26T15:02:22;5.20;71.60
71084;DHT22;58741;52.672;13.548;2023-02-26T15:04:57;5.10;72.60
71084;DHT22;58741;52.672;13.548;2023-02-26T15:13:08;5.10;74.50
71084;DHT22;58741;52.672;13.548;2023-02-26T15:24:29;5.40;77.70
71084;DHT22;58741;52.672;13.548;2023-02-26T15:26:59;5.60;81.70
71084;DHT22;58741;52.672;13.548;2023-02-26T15:29:32;5.90;76.30
71084;DHT22;58741;52.672;13.548;2023-02-26T15:32:26;5.90;73.30
71084;DHT22;58741;52.672;13.548;2023-02-26T15:35:13;5.90;71.80
71084;DHT22;58741;52.672;13.548;2023-02-26T15:37:40;5.70;71.30
71084;DHT22;58741;52.672;13.548;2023-02-26T15:40:06;5.60;72.00
71084;DHT22;58741;52.672;13.548;2023-02-26T15:42:38;5.50;71.40
71084;DHT22;58741;52.672;13.548;2023-02-26T15:47:54;5.20;72.00
71084;DHT22;58741;52.672;13.548;2023-02-26T15:50:24;5.10;70.90
71084;DHT22;58741;52.672;13.548;2023-02-26T15:52:54;5.00;72.10
71084;DHT22;58741;52.672;13.548;2023-02-26T15:55:21;4.80;72.10
71084;DHT22;58741;52.672;13.548;2023-02-26T15:57:47;4.70;72.30
71084;DHT22;58741;52.672;13.548;2023-02-26T16:00:20;4.60;73.20
71084;DHT22;58741;52.672;13.548;2023-02-26T16:02:54;4.50;73.00
71084;DHT22;58741;52.672;13.548;2023-02-26T16:05:22;4.50;73.60
71084;DHT22;58741;52.672;13.548;2023-02-26T16:07:49;4.40;73.20
71084;DHT22;58741;52.672;13.548;2023-02-26T16:10:33;4.30;73.80
71084;DHT22;58741;52.672;13.548;2023-02-26T16:13:03;4.20;73.70
71084;DHT22;58741;52.672;13.548;2023-02-26T16:15:35;4.10;74.20
71084;DHT22;58741;52.672;13.548;2023-02-26T16:18:10;4.00;74.10
71084;DHT22;58741;52.672;13.548;2023-02-26T16:20:46;3.90;75.00
71084;DHT22;58741;52.672;13.548;2023-02-26T16:23:16;3.80;75.50
71084;DHT22;58741;52.672;13.548;2023-02-26T16:28:20;3.70;75.50
71084;DHT22;58741;52.672;13.548;2023-02-26T16:30:49;3.60;75.70
71084;DHT22;58741;52.672;13.548;2023-02-26T16:33:17;3.50;75.70
71084;DHT22;58741;52.672;13.548;2023-02-26T16:36:12;3.40;76.70
71084;DHT22;58741;52.672;13.548;2023-02-26T16:39:22;3.30;76.20
71084;DHT22;58741;52.672;13.548;2023-02-26T16:41:47;3.20;76.30
71084;DHT22;58741;52.672;13.548;2023-02-26T16:44:38;3.10;75.90
71084;DHT22;58741;52.672;13.548;2023-02-26T16:47:08;3.00;77.00
71084;DHT22;58741;52.672;13.548;2023-02-26T16:49:36;2.90;77.40
71084;DHT22;58741;52.672;13.548;2023-02-26T16:52:04;2.90;78.10
71084;DHT22;58741;52.672;13.548;2023-02-26T16:54:36;2.80;78.60
71084;DHT22;58741;52.672;13.548;2023-02-26T16:57:22;2.80;78.80
71084;DHT22;58741;52.672;13.548;2023-02-26T16:59:55;2.70;78.20
71084;DHT22;58741;52.672;13.548;2023-02-26T17:02:25;2.60;79.40
71084;DHT22;58741;52.672;13.548;2023-02-26T17:04:53;2.60;79.70
71084;DHT22;58741;52.672;13.548;2023-02-26T17:07:26;2.60;79.80
71084;DHT22;58741;52.672;13.548;2023-02-26T17:09:57;2.50;79.80
71084;DHT22;58741;52.672;13.548;2023-02-26T17:12:43;2.50;80.30
71084;DHT22;58741;52.672;13.548;2023-02-26T17:15:30;2.50;80.60
71084;DHT22;58741;52.672;13.548;2023-02-26T17:17:56;2.40;80.40
71084;DHT22;58741;52.672;13.548;2023-02-26T17:20:26;2.40;80.60
71084;DHT22;58741;52.672;13.548;2023-02-26T17:22:54;2.30;80.80
71084;DHT22;58741;52.672;13.548;2023-02-26T17:25:21;2.30;80.60
71084;DHT22;58741;52.672;13.548;2023-02-26T17:27:50;2.20;80.90
71084;DHT22;58741;52.672;13.548;2023-02-26T17:30:19;2.10;81.20
71084;DHT22;58741;52.672;13.548;2023-02-26T17:32:46;2.00;81.80
71084;DHT22;58741;52.672;13.548;2023-02-26T17:35:16;2.00;81.80
71084;DHT22;58741;52.672;13.548;2023-02-26T17:37:43;1.90;81.90
71084;DHT22;58741;52.672;13.548;2023-02-26T17:40:29;1.90;82.40
71084;DHT22;58741;52.672;13.548;2023-02-26T17:42:56;1.80;82.40
71084;DHT22;58741;52.672;13.548;2023-02-26T17:45:22;1.80;82.80
71084;DHT22;58741;52.672;13.548;2023-02-26T17:47:48;1.70;82.70
71084;DHT22;58741;52.672;13.548;2023-02-26T17:50:24;1.70;83.00
71084;DHT22;58741;52.672;13.548;2023-02-26T17:52:51;1.60;83.10
71084;DHT22;58741;52.672;13.548;2023-02-26T17:55:17;1.60;83.40
71084;DHT22;58741;52.672;13.548;2023-02-26T17:57:42;1.60;83.30
71084;DHT22;58741;52.672;13.548;2023-02-26T18:00:11;1.50;83.20
71084;DHT22;58741;52.672;13.548;2023-02-26T18:02:40;1.50;83.30
71084;DHT22;58741;52.672;13.548;2023-02-26T18:05:06;1.40;83.30
71084;DHT22;58741;52.672;13.548;2023-02-26T18:07:32;1.40;83.30
71084;DHT22;58741;52.672;13.548;2023-02-26T18:09:57;1.30;83.20
71084;DHT22;58741;52.672;13.548;2023-02-26T18:12:23;1.20;83.40
71084;DHT22;58741;52.672;13.548;2023-02-26T18:14:49;1.20;83.60
71084;DHT22;58741;52.672;13.548;2023-02-26T18:17:26;1.10;83.70
71084;DHT22;58741;52.672;13.548;2023-02-26T18:19:53;1.10;83.90
71084;DHT22;58741;52.672;13.548;2023-02-26T18:22:20;1.00;83.70